Time;durP1;ratioP1;P1;durP2;ratioP2;P2;SDS_P1;SDS_P2;PMS_P1;PMS_P2;Temp;Humidity;BMP_temperature;BMP_pressure;BME280_temperature;BME280_humidity;BME280_pressure;Samples;Min_cycle;Max_cycle;Signal;HPM_P1;HPM_P2
2023/07/19 00:04:15;;;;;;;;;;;17.30;99.90;;;;;;12523432;28;19925;-34
2023/07/19 00:10:17;;;;;;;;;;;17.40;99.90;;;;;;12476758;28;20035;-35
2023/07/19 00:16:19;;;;;;;;;;;17.30;99.90;;;;;;12506135;28;20313;-35
2023/07/19 00:22:21;;;;;;;;;;;17.40;99.90;;;;;;12503555;28;19925;-35
2023/07/19 00:28:23;;;;;;;;;;;17.40;99.90;;;;;;12522913;28;19925;-35
2023/07/19 00:34:24;;;;;;;;;;;17.40;99.90;;;;;;12523502;28;19925;-34
2023/07/19 00:40:26;;;;;;;;;;;17.50;99.90;;;;;;12522500;28;19921;-35
2023/07/19 00:46:28;;;;;;;;;;;17.10;99.90;;;;;;12540207;28;19928;-35
2023/07/19 00:52:30;;;;;;;;;;;17.20;99.90;;;;;;12511052;28;19925;-35
2023/07/19 00:58:32;;;;;;;;;;;17.30;99.90;;;;;;12528874;28;19932;-35
2023/07/19 01:04:34;;;;;;;;;;;17.20;99.90;;;;;;12522731;28;19921;-35
2023/07/19 01:10:36;;;;;;;;;;;17.10;99.90;;;;;;12521542;28;19975;-36
2023/07/19 01:16:38;;;;;;;;;;;17.20;99.90;;;;;;12543689;28;20372;-35
2023/07/19 01:22:42;;;;;;;;;;;16.90;99.90;;;;;;12505422;28;19940;-35
2023/07/19 01:28:44;;;;;;;;;;;16.70;99.90;;;;;;12520215;28;20288;-35
2023/07/19 01:34:45;;;;;;;;;;;16.70;99.90;;;;;;12527780;28;20436;-35
2023/07/19 01:40:48;;;;;;;;;;;16.60;99.90;;;;;;12505736;28;20409;-35
2023/07/19 01:46:50;;;;;;;;;;;16.20;99.90;;;;;;12518680;28;19955;-35
2023/07/19 01:52:52;;;;;;;;;;;16.20;99.90;;;;;;12550653;28;19920;-34
2023/07/19 01:58:53;;;;;;;;;;;16.10;99.90;;;;;;12524193;28;19921;-35
2023/07/19 02:04:55;;;;;;;;;;;16.30;99.90;;;;;;12517158;28;19921;-35
2023/07/19 02:10:57;;;;;;;;;;;16.20;99.90;;;;;;12536135;28;19992;-35
2023/07/19 02:16:59;;;;;;;;;;;16.20;99.90;;;;;;12549534;28;19925;-34
2023/07/19 02:23:01;;;;;;;;;;;16.20;99.90;;;;;;12520017;28;20399;-35
2023/07/19 02:29:02;;;;;;;;;;;16.00;99.90;;;;;;12532812;28;19924;-35
2023/07/19 02:35:04;;;;;;;;;;;16.00;99.90;;;;;;12524451;28;20461;-35
2023/07/19 02:41:07;;;;;;;;;;;15.90;99.90;;;;;;12505425;28;19932;-35
2023/07/19 02:47:09;;;;;;;;;;;15.70;99.90;;;;;;12508396;28;20284;-35
2023/07/19 02:53:11;;;;;;;;;;;15.70;99.90;;;;;;12502562;28;19964;-35
2023/07/19 02:59:13;;;;;;;;;;;15.80;99.90;;;;;;12543102;28;20530;-34
2023/07/19 03:05:15;;;;;;;;;;;15.80;99.90;;;;;;12517296;28;19921;-36
2023/07/19 03:11:18;;;;;;;;;;;15.90;99.90;;;;;;12490421;28;20392;-42
2023/07/19 03:17:20;;;;;;;;;;;16.00;99.90;;;;;;12519324;28;19921;-42
2023/07/19 03:23:22;;;;;;;;;;;16.10;99.90;;;;;;12522894;28;20404;-42
2023/07/19 03:29:24;;;;;;;;;;;16.30;99.90;;;;;;12515907;28;20377;-42
2023/07/19 03:35:26;;;;;;;;;;;16.40;99.90;;;;;;12504668;28;19925;-42
2023/07/19 03:41:27;;;;;;;;;;;16.30;99.90;;;;;;12504232;28;19921;-42
2023/07/19 03:47:29;;;;;;;;;;;16.30;99.90;;;;;;12493648;28;20406;-42
2023/07/19 03:53:31;;;;;;;;;;;16.30;99.90;;;;;;12499049;28;20373;-42
2023/07/19 03:59:33;;;;;;;;;;;16.30;99.90;;;;;;12527748;28;20045;-42
2023/07/19 04:05:34;;;;;;;;;;;16.40;99.90;;;;;;12512299;28;19921;-42
2023/07/19 04:11:36;;;;;;;;;;;16.40;99.90;;;;;;12508998;28;20011;-42
2023/07/19 04:17:38;;;;;;;;;;;16.40;99.90;;;;;;12505333;28;19987;-42
2023/07/19 04:23:40;;;;;;;;;;;16.40;99.90;;;;;;12513238;28;19921;-42
2023/07/19 04:29:42;;;;;;;;;;;15.80;99.90;;;;;;12518727;28;19925;-42
2023/07/19 04:35:44;;;;;;;;;;;16.20;99.90;;;;;;12513019;28;19936;-42
2023/07/19 04:41:46;;;;;;;;;;;17.40;99.90;;;;;;12503329;28;19983;-42
2023/07/19 04:47:48;;;;;;;;;;;17.20;99.90;;;;;;12514260;28;20310;-42
2023/07/19 04:53:50;;;;;;;;;;;16.60;99.90;;;;;;12495587;28;19921;-42
2023/07/19 04:59:52;;;;;;;;;;;16.70;99.90;;;;;;12512712;28;20404;-42
2023/07/19 05:05:54;;;;;;;;;;;16.30;99.90;;;;;;12541282;28;19972;-42
2023/07/19 05:11:56;;;;;;;;;;;15.70;99.90;;;;;;12497383;28;20298;-42
2023/07/19 05:18:00;;;;;;;;;;;15.70;99.90;;;;;;12506978;28;20578;-42
2023/07/19 05:24:02;;;;;;;;;;;15.90;99.90;;;;;;12493160;28;19927;-42
2023/07/19 05:30:04;;;;;;;;;;;16.10;99.90;;;;;;12510955;28;19928;-42
2023/07/19 05:36:06;;;;;;;;;;;16.50;99.90;;;;;;12496261;28;20027;-42
2023/07/19 05:42:08;;;;;;;;;;;16.80;99.90;;;;;;12513276;28;19963;-42
2023/07/19 05:48:10;;;;;;;;;;;17.10;99.90;;;;;;12495184;28;19921;-42
2023/07/19 05:54:12;;;;;;;;;;;17.20;99.90;;;;;;12474884;28;20411;-41
2023/07/19 06:00:22;;;;;;;;;;;17.40;99.90;;;;;;12522635;28;20440;-42
2023/07/19 06:06:25;;;;;;;;;;;17.10;99.90;;;;;;12522730;28;20293;-42
2023/07/19 06:12:27;;;;;;;;;;;17.20;99.90;;;;;;12483270;28;19932;-42
2023/07/19 06:18:29;;;;;;;;;;;17.20;99.90;;;;;;12519532;28;19921;-43
2023/07/19 06:24:31;;;;;;;;;;;17.40;99.90;;;;;;12494309;28;19921;-43
2023/07/19 06:30:32;;;;;;;;;;;17.40;99.90;;;;;;12511361;28;20621;-42
2023/07/19 06:36:34;;;;;;;;;;;17.50;99.90;;;;;;12497958;28;19921;-42
2023/07/19 06:42:36;;;;;;;;;;;17.70;99.90;;;;;;12506504;28;20012;-44
2023/07/19 06:48:38;;;;;;;;;;;17.90;99.90;;;;;;12479602;28;19925;-43
2023/07/19 06:54:39;;;;;;;;;;;18.00;99.90;;;;;;12480041;28;19920;-42
2023/07/19 07:00:41;;;;;;;;;;;17.90;99.90;;;;;;12519493;28;19940;-42
2023/07/19 07:06:44;;;;;;;;;;;17.90;99.90;;;;;;12509227;28;19928;-42
2023/07/19 07:12:45;;;;;;;;;;;17.80;99.90;;;;;;12497227;28;19971;-42
2023/07/19 07:18:47;;;;;;;;;;;18.00;99.90;;;;;;12516083;28;20395;-42
2023/07/19 07:24:49;;;;;;;;;;;18.50;99.90;;;;;;12500793;28;19928;-42
2023/07/19 07:30:50;;;;;;;;;;;18.50;99.90;;;;;;12491367;28;19990;-42
2023/07/19 07:36:52;;;;;;;;;;;18.50;99.90;;;;;;12501424;28;19921;-42
2023/07/19 07:42:54;;;;;;;;;;;18.70;99.90;;;;;;12487754;28;19924;-42
2023/07/19 07:48:59;;;;;;;;;;;18.80;99.90;;;;;;12508543;28;19925;-42
2023/07/19 07:55:01;;;;;;;;;;;19.00;99.90;;;;;;12486819;28;20404;-42
2023/07/19 08:01:03;;;;;;;;;;;19.10;99.90;;;;;;12537186;28;19946;-42
2023/07/19 08:07:05;;;;;;;;;;;19.00;99.90;;;;;;12517520;28;19925;-42
2023/07/19 08:13:08;;;;;;;;;;;19.40;99.90;;;;;;12500988;28;20355;-42
2023/07/19 08:19:09;;;;;;;;;;;19.40;99.90;;;;;;12516729;28;19920;-43
2023/07/19 08:25:11;;;;;;;;;;;19.50;99.90;;;;;;12516359;28;19920;-42
2023/07/19 08:31:27;;;;;;;;;;;19.70;99.90;;;;;;12484095;28;19924;-42
2023/07/19 08:37:29;;;;;;;;;;;19.70;99.90;;;;;;12520131;28;20301;-42
2023/07/19 08:43:35;;;;;;;;;;;20.00;99.90;;;;;;12474989;28;20712;-42
2023/07/19 08:49:38;;;;;;;;;;;20.20;99.90;;;;;;12497270;28;19925;-41
2023/07/19 08:55:40;;;;;;;;;;;20.30;99.90;;;;;;12482556;28;19924;-42
2023/07/19 09:01:42;;;;;;;;;;;20.50;99.90;;;;;;12497884;28;19944;-42
2023/07/19 09:07:45;;;;;;;;;;;20.70;99.90;;;;;;12515325;28;20313;-42
2023/07/19 09:13:51;;;;;;;;;;;20.70;99.90;;;;;;12488302;28;19929;-42
2023/07/19 09:19:53;;;;;;;;;;;20.80;99.90;;;;;;12521347;28;19928;-43
2023/07/19 09:25:55;;;;;;;;;;;21.10;99.90;;;;;;12524302;28;20326;-43
2023/07/19 09:32:02;;;;;;;;;;;21.30;99.90;;;;;;12500995;28;19929;-42
2023/07/19 09:38:04;;;;;;;;;;;21.80;99.90;;;;;;12517781;28;19920;-43
2023/07/19 09:44:09;;;;;;;;;;;22.50;99.90;;;;;;12502693;28;20398;-43
2023/07/19 09:50:12;;;;;;;;;;;22.30;99.90;;;;;;12493856;28;19946;-42
2023/07/19 09:56:14;;;;;;;;;;;21.70;99.90;;;;;;12496193;28;19921;-42
2023/07/19 10:02:16;;;;;;;;;;;21.90;99.90;;;;;;12507046;28;20140;-43
2023/07/19 10:08:18;;;;;;;;;;;21.60;99.90;;;;;;12491391;28;20135;-43
2023/07/19 10:14:26;;;;;;;;;;;21.60;99.90;;;;;;12478649;28;20399;-43
2023/07/19 10:20:35;;;;;;;;;;;21.90;99.90;;;;;;12523263;28;19924;-42
2023/07/19 10:26:37;;;;;;;;;;;22.00;99.90;;;;;;12512453;28;20403;-42
2023/07/19 10:32:39;;;;;;;;;;;21.90;99.90;;;;;;12501433;28;19948;-42
2023/07/19 10:38:41;;;;;;;;;;;22.40;99.90;;;;;;12507883;28;19975;-42
2023/07/19 10:44:43;;;;;;;;;;;22.30;99.90;;;;;;12516608;28;20055;-42
2023/07/19 10:50:45;;;;;;;;;;;21.80;99.90;;;;;;12479186;28;19983;-42
2023/07/19 10:56:48;;;;;;;;;;;21.90;99.90;;;;;;12495307;28;19925;-42
2023/07/19 11:02:52;;;;;;;;;;;22.30;99.90;;;;;;12509140;28;19927;-43
2023/07/19 11:09:02;;;;;;;;;;;22.60;99.90;;;;;;12506861;28;19932;-42
2023/07/19 11:15:06;;;;;;;;;;;22.00;99.90;;;;;;12500573;28;19929;-43
2023/07/19 11:21:09;;;;;;;;;;;22.20;99.90;;;;;;12503579;28;19936;-42
2023/07/19 11:27:12;;;;;;;;;;;21.90;99.90;;;;;;12488846;28;19921;-43
2023/07/19 11:33:16;;;;;;;;;;;21.70;99.90;;;;;;12490617;28;19932;-43
2023/07/19 11:39:20;;;;;;;;;;;21.40;99.90;;;;;;12512222;28;19935;-43
2023/07/19 11:45:24;;;;;;;;;;;21.20;99.90;;;;;;12492531;28;20321;-42
2023/07/19 11:51:27;;;;;;;;;;;21.10;99.90;;;;;;12472343;28;20279;-43
2023/07/19 11:57:29;;;;;;;;;;;21.30;99.90;;;;;;12475168;28;19921;-42
2023/07/19 12:03:32;;;;;;;;;;;21.60;99.90;;;;;;12503752;28;20174;-42
2023/07/19 12:09:33;;;;;;;;;;;21.90;99.90;;;;;;12507240;28;19921;-41
2023/07/19 12:15:35;;;;;;;;;;;21.60;99.90;;;;;;12501945;28;19921;-43
2023/07/19 12:21:39;;;;;;;;;;;21.30;99.90;;;;;;12515779;28;19920;-43
2023/07/19 12:27:42;;;;;;;;;;;21.40;99.90;;;;;;12488499;28;19947;-42
2023/07/19 12:33:44;;;;;;;;;;;21.80;99.90;;;;;;12511744;28;19921;-42
2023/07/19 12:39:46;;;;;;;;;;;21.70;99.90;;;;;;12494939;28;19921;-43
2023/07/19 12:45:48;;;;;;;;;;;21.60;99.90;;;;;;12510152;28;20022;-42
2023/07/19 12:51:50;;;;;;;;;;;21.50;99.90;;;;;;12506039;28;19920;-42
2023/07/19 12:57:52;;;;;;;;;;;21.40;99.90;;;;;;12516890;28;20305;-42
2023/07/19 13:03:53;;;;;;;;;;;21.50;99.90;;;;;;12511631;28;20003;-42
2023/07/19 13:09:56;;;;;;;;;;;21.70;99.90;;;;;;12516652;28;20479;-42
2023/07/19 13:15:58;;;;;;;;;;;21.80;99.90;;;;;;12504111;28;20325;-42
2023/07/19 13:22:00;;;;;;;;;;;22.20;99.90;;;;;;12528889;28;19994;-42
2023/07/19 13:28:01;;;;;;;;;;;22.70;99.90;;;;;;12498488;28;20300;-42
2023/07/19 13:34:03;;;;;;;;;;;22.30;99.90;;;;;;12513404;28;19921;-42
2023/07/19 13:40:06;;;;;;;;;;;22.10;99.90;;;;;;12513255;28;19931;-42
2023/07/19 13:46:08;;;;;;;;;;;21.70;99.90;;;;;;12469680;28;20052;-43
2023/07/19 13:52:10;;;;;;;;;;;21.30;99.90;;;;;;12497104;28;20004;-42
2023/07/19 13:58:13;;;;;;;;;;;22.40;99.90;;;;;;12520302;28;19925;-42
2023/07/19 14:04:15;;;;;;;;;;;22.70;99.90;;;;;;12528734;28;20372;-42
2023/07/19 14:10:17;;;;;;;;;;;22.90;99.90;;;;;;12486368;28;20405;-41
2023/07/19 14:16:18;;;;;;;;;;;22.80;99.90;;;;;;12522605;28;20419;-42
2023/07/19 14:22:20;;;;;;;;;;;23.30;99.90;;;;;;12521445;28;19952;-43
2023/07/19 14:28:22;;;;;;;;;;;23.40;99.90;;;;;;12479048;28;19968;-42
2023/07/19 14:34:24;;;;;;;;;;;22.70;99.90;;;;;;12496517;28;20396;-42
2023/07/19 14:40:27;;;;;;;;;;;22.30;99.90;;;;;;12492177;28;20289;-42
2023/07/19 14:46:29;;;;;;;;;;;22.00;99.90;;;;;;12510415;28;19929;-42
2023/07/19 14:52:30;;;;;;;;;;;21.90;99.90;;;;;;12514811;28;19920;-42
2023/07/19 14:58:34;;;;;;;;;;;22.00;99.90;;;;;;12511396;28;19925;-42
2023/07/19 15:04:36;;;;;;;;;;;22.40;99.90;;;;;;12518083;28;19921;-42
2023/07/19 15:10:38;;;;;;;;;;;22.80;99.90;;;;;;12509272;28;19932;-42
2023/07/19 15:16:40;;;;;;;;;;;23.00;99.90;;;;;;12516627;28;19928;-42
2023/07/19 15:22:42;;;;;;;;;;;22.40;99.90;;;;;;12528716;28;19921;-42
2023/07/19 15:28:46;;;;;;;;;;;21.60;99.90;;;;;;12514675;28;19928;-42
2023/07/19 15:34:48;;;;;;;;;;;21.20;99.90;;;;;;12508914;28;19929;-42
2023/07/19 15:47:57;;;;;;;;;;;20.80;99.90;;;;;;12481707;28;20285;-42
2023/07/19 15:53:58;;;;;;;;;;;20.70;99.90;;;;;;12502124;28;19970;-42
2023/07/19 16:00:00;;;;;;;;;;;20.80;99.90;;;;;;12509185;28;20399;-43
2023/07/19 16:06:02;;;;;;;;;;;20.90;99.90;;;;;;12521332;28;19921;-42
2023/07/19 16:12:06;;;;;;;;;;;20.70;99.90;;;;;;12492039;28;20297;-42
2023/07/19 16:18:08;;;;;;;;;;;20.50;99.90;;;;;;12521806;28;20292;-42
2023/07/19 16:24:10;;;;;;;;;;;20.40;99.90;;;;;;12514962;28;19998;-41
2023/07/19 16:30:12;;;;;;;;;;;20.30;99.90;;;;;;12496417;28;19927;-42
2023/07/19 16:36:14;;;;;;;;;;;20.00;99.90;;;;;;12495888;28;20401;-42
2023/07/19 16:42:17;;;;;;;;;;;19.80;99.90;;;;;;12486054;28;20262;-42
2023/07/19 16:48:20;;;;;;;;;;;19.90;99.90;;;;;;12484391;28;20373;-42
2023/07/19 16:54:22;;;;;;;;;;;19.90;99.90;;;;;;12497849;28;20016;-42
2023/07/19 17:00:24;;;;;;;;;;;19.90;99.90;;;;;;12480964;28;20062;-42
2023/07/19 17:06:26;;;;;;;;;;;19.90;99.90;;;;;;12513455;28;19921;-42
2023/07/19 17:12:27;;;;;;;;;;;19.80;99.90;;;;;;12513768;28;20437;-42
2023/07/19 17:18:30;;;;;;;;;;;19.90;99.90;;;;;;12507798;28;20278;-42
2023/07/19 17:24:32;;;;;;;;;;;19.80;99.90;;;;;;12505530;28;19925;-42
2023/07/19 17:30:33;;;;;;;;;;;19.90;99.90;;;;;;12485226;28;20255;-42
2023/07/19 17:36:35;;;;;;;;;;;20.30;99.90;;;;;;12516420;28;19921;-43
2023/07/19 17:42:38;;;;;;;;;;;20.30;99.90;;;;;;12506743;28;20391;-42
2023/07/19 17:48:39;;;;;;;;;;;19.90;99.90;;;;;;12481234;28;19956;-43
2023/07/19 17:54:41;;;;;;;;;;;19.90;99.90;;;;;;12514994;28;19932;-41
2023/07/19 18:00:43;;;;;;;;;;;19.70;99.90;;;;;;12510153;28;20200;-42
2023/07/19 18:06:45;;;;;;;;;;;19.70;99.90;;;;;;12503788;28;20036;-42
2023/07/19 18:12:47;;;;;;;;;;;19.60;99.90;;;;;;12507034;28;19970;-43
2023/07/19 18:18:48;;;;;;;;;;;19.50;99.90;;;;;;12508685;28;20965;-42
2023/07/19 18:24:50;;;;;;;;;;;19.70;99.90;;;;;;12508524;28;20335;-42
2023/07/19 18:30:52;;;;;;;;;;;19.50;99.90;;;;;;12486898;28;19924;-42
2023/07/19 18:36:54;;;;;;;;;;;19.50;99.90;;;;;;12505512;28;20363;-42
2023/07/19 18:42:56;;;;;;;;;;;19.50;99.90;;;;;;12489337;28;19936;-42
2023/07/19 18:48:58;;;;;;;;;;;19.20;99.90;;;;;;12478207;28;20340;-42
2023/07/19 18:54:59;;;;;;;;;;;18.40;99.90;;;;;;12500635;28;19990;-44
2023/07/19 19:01:01;;;;;;;;;;;18.30;99.90;;;;;;12498807;28;20050;-42
2023/07/19 19:07:04;;;;;;;;;;;18.40;99.90;;;;;;12506060;28;19921;-42
2023/07/19 19:13:06;;;;;;;;;;;18.20;99.90;;;;;;12490603;28;19927;-42
2023/07/19 19:19:09;;;;;;;;;;;18.40;99.90;;;;;;12489945;28;19928;-42
2023/07/19 19:25:11;;;;;;;;;;;18.20;99.90;;;;;;12461261;28;19928;-42
2023/07/19 19:31:13;;;;;;;;;;;18.30;99.90;;;;;;12466470;28;19928;-42
2023/07/19 19:37:16;;;;;;;;;;;18.20;99.90;;;;;;12481979;28;20023;-42
2023/07/19 19:43:18;;;;;;;;;;;18.10;99.90;;;;;;12497353;28;19963;-42
2023/07/19 19:49:20;;;;;;;;;;;18.20;99.90;;;;;;12501883;28;19920;-42
2023/07/19 19:55:22;;;;;;;;;;;18.00;99.90;;;;;;12517500;28;20395;-42
2023/07/19 20:01:24;;;;;;;;;;;18.10;99.90;;;;;;12513592;28;19925;-42
2023/07/19 20:07:33;;;;;;;;;;;18.20;99.90;;;;;;12511774;28;19932;-42
2023/07/19 20:13:35;;;;;;;;;;;18.00;99.90;;;;;;12494877;28;20405;-43
2023/07/19 20:19:37;;;;;;;;;;;18.10;99.90;;;;;;12525270;28;19990;-42
2023/07/19 20:25:39;;;;;;;;;;;18.10;99.90;;;;;;12499624;28;21138;-42
2023/07/19 20:31:59;;;;;;;;;;;17.90;99.90;;;;;;12490821;28;20373;-42
2023/07/19 20:38:03;;;;;;;;;;;17.90;99.90;;;;;;12517981;28;20857;-42
2023/07/19 20:44:09;;;;;;;;;;;17.90;99.90;;;;;;12517713;28;20004;-42
2023/07/19 20:50:11;;;;;;;;;;;18.00;99.90;;;;;;12510900;28;19920;-42
2023/07/19 20:56:13;;;;;;;;;;;18.00;99.90;;;;;;12500351;28;19928;-42
2023/07/19 21:02:15;;;;;;;;;;;17.90;99.90;;;;;;12493782;28;19921;-42
2023/07/19 21:08:17;;;;;;;;;;;17.70;99.90;;;;;;12504997;28;20781;-42
2023/07/19 21:14:21;;;;;;;;;;;17.30;99.90;;;;;;12505047;28;19956;-42
2023/07/19 21:20:23;;;;;;;;;;;17.10;99.90;;;;;;12503093;28;19971;-43
2023/07/19 21:26:25;;;;;;;;;;;17.10;99.90;;;;;;12486399;28;19936;-42
2023/07/19 21:32:27;;;;;;;;;;;17.30;99.90;;;;;;12499606;28;19921;-42
2023/07/19 21:38:30;;;;;;;;;;;17.50;99.90;;;;;;12489920;28;19925;-41
2023/07/19 21:44:31;;;;;;;;;;;17.50;99.90;;;;;;12461375;28;19921;-42
2023/07/19 21:50:33;;;;;;;;;;;17.50;99.90;;;;;;12471393;28;19920;-42
2023/07/19 21:56:35;;;;;;;;;;;17.40;99.90;;;;;;12500683;28;20323;-42
2023/07/19 22:02:36;;;;;;;;;;;17.20;99.90;;;;;;12524741;28;20015;-42
2023/07/19 22:08:38;;;;;;;;;;;17.00;99.90;;;;;;12504142;28;20445;-42
2023/07/19 22:14:42;;;;;;;;;;;17.00;99.90;;;;;;12510096;28;19925;-42
2023/07/19 22:20:52;;;;;;;;;;;16.70;99.90;;;;;;12509577;28;20361;-42
2023/07/19 22:26:59;;;;;;;;;;;16.70;99.90;;;;;;12498889;28;19921;-42
2023/07/19 22:33:00;;;;;;;;;;;16.60;99.90;;;;;;12487817;28;19990;-42
2023/07/19 22:39:03;;;;;;;;;;;16.70;99.90;;;;;;12512132;28;19958;-43
2023/07/19 22:45:05;;;;;;;;;;;16.70;99.90;;;;;;12500723;28;19927;-42
2023/07/19 22:51:07;;;;;;;;;;;16.70;99.90;;;;;;12496438;28;19971;-42
2023/07/19 22:57:08;;;;;;;;;;;16.60;99.90;;;;;;12506605;28;20327;-42
2023/07/19 23:03:10;;;;;;;;;;;16.50;99.90;;;;;;12511082;28;20066;-42
2023/07/19 23:09:12;;;;;;;;;;;16.50;99.90;;;;;;12483594;28;20283;-42
2023/07/19 23:15:15;;;;;;;;;;;16.20;99.90;;;;;;12484992;28;19928;-43
2023/07/19 23:21:16;;;;;;;;;;;16.40;99.90;;;;;;12499084;28;20176;-41
2023/07/19 23:27:18;;;;;;;;;;;16.30;99.90;;;;;;12474515;28;20396;-42
2023/07/19 23:33:20;;;;;;;;;;;16.40;99.90;;;;;;12477179;28;19925;-42
2023/07/19 23:39:22;;;;;;;;;;;16.30;99.90;;;;;;12484675;28;20375;-42
2023/07/19 23:45:24;;;;;;;;;;;16.40;99.90;;;;;;12495611;28;20395;-42
2023/07/19 23:51:26;;;;;;;;;;;16.50;99.90;;;;;;12491851;28;20023;-42
2023/07/19 23:57:27;;;;;;;;;;;16.40;99.90;;;;;;12505180;28;20558;-42
